Weather reports worldwide

Advertisment
Great Dun Fell, United Kingdom (3227): temperature & dewpoint: 09.11.2018 05:00:00 - 15.11.2018 05:00:00 (GMT)Great Dun Fell, United Kingdom (3227): wind speed & gusts: 09.11.2018 05:00:00 - 15.11.2018 05:00:00 (GMT)Great Dun Fell, United Kingdom (3227): wind direction: 09.11.2018 05:00:00 - 15.11.2018 05:00:00 (GMT)
Date & Time tt [°C] td [°C] ff [km/h] ff [kn] fx [km/h] fx [kn] dd
15.11.2018 05:00:00 - - - - - - -
15.11.2018 04:00:00 - - - - - - -
15.11.2018 03:00:00 - - - - - - -
15.11.2018 02:00:00 3,5 3,4 46 25 52 28 SW
15.11.2018 01:00:00 3,8 3,7 44 24 55 30 SW
15.11.2018 00:00:00 4,3 4,2 52 28 57 31 SW
14.11.2018 23:00:00 4,7 4,6 52 28 67 36 SSW
14.11.2018 22:00:00 5,0 4,8 55 30 74 40 SW
14.11.2018 21:00:00 5,5 5,4 55 30 76 41 SW
14.11.2018 20:00:00 5,6 5,5 67 36 85 46 SSW
14.11.2018 19:00:00 5,5 5,4 57 31 80 43 SW
14.11.2018 18:00:00 5,6 5,5 70 38 85 46 SW
14.11.2018 17:00:00 6,0 5,8 59 32 76 41 SW
14.11.2018 16:00:00 6,4 6,3 54 29 76 41 SW
14.11.2018 15:00:00 6,8 6,6 68 37 81 44 SW
14.11.2018 14:00:00 6,9 6,8 61 33 85 46 SW
14.11.2018 13:00:00 7,0 6,8 70 38 93 50 SW
14.11.2018 12:00:00 7,0 6,8 78 42 98 53 SW
14.11.2018 11:00:00 6,8 6,6 83 45 107 58 SW
14.11.2018 10:00:00 6,5 6,3 93 50 111 60 SW
14.11.2018 09:00:00 6,3 6,1 94 51 106 57 SW
14.11.2018 08:00:00 5,9 5,7 78 42 96 52 SW
14.11.2018 07:00:00 5,7 5,5 81 44 100 54 SW
14.11.2018 06:00:00 5,3 5,2 80 43 100 54 SSW
14.11.2018 05:00:00 5,0 4,9 76 41 91 49 SSW
14.11.2018 04:00:00 4,8 4,6 67 36 85 46 SSW
14.11.2018 03:00:00 4,8 4,7 67 36 83 45 SSW
14.11.2018 02:00:00 5,1 4,9 67 36 83 45 SSW
14.11.2018 01:00:00 4,9 4,7 74 40 85 46 SW
14.11.2018 00:00:00 4,8 4,6 68 37 83 45 SW
13.11.2018 23:00:00 4,5 4,4 74 40 83 45 SW
13.11.2018 22:00:00 4,5 4,4 70 38 80 43 SW
13.11.2018 21:00:00 4,4 4,3 74 40 89 48 SW
13.11.2018 20:00:00 4,5 4,4 76 41 91 49 SW
13.11.2018 19:00:00 4,7 4,6 65 35 89 48 SW
13.11.2018 18:00:00 4,6 4,4 68 37 78 42 SW
13.11.2018 17:00:00 4,0 3,9 61 33 72 39 SW
13.11.2018 16:00:00 3,6 3,4 65 35 74 40 SW
13.11.2018 15:00:00 4,5 4,3 59 32 67 36 WSW
13.11.2018 14:00:00 3,7 3,5 52 28 70 38 WSW
13.11.2018 13:00:00 3,9 3,8 57 31 80 43 WSW
13.11.2018 12:00:00 3,5 3,3 65 35 83 45 W
13.11.2018 11:00:00 3,5 3,3 61 33 74 40 W
13.11.2018 10:00:00 3,3 3,2 65 35 76 41 W
13.11.2018 09:00:00 3,2 3,0 63 34 81 44 W
13.11.2018 08:00:00 3,4 3,3 67 36 80 43 W
13.11.2018 07:00:00 3,5 3,3 68 37 80 43 W
13.11.2018 06:00:00 3,7 3,5 65 35 80 43 WSW
13.11.2018 05:00:00 3,5 3,3 61 33 74 40 WSW
13.11.2018 04:00:00 3,4 3,2 55 30 74 40 WSW
13.11.2018 03:00:00 3,5 3,3 50 27 61 33 WSW
13.11.2018 02:00:00 3,5 3,4 57 31 67 36 SW
13.11.2018 01:00:00 3,1 2,9 57 31 85 46 SW
13.11.2018 00:00:00 2,7 2,5 74 40 91 49 SW
12.11.2018 23:00:00 3,0 2,9 72 39 89 48 SW
12.11.2018 22:00:00 3,1 3,0 65 35 83 45 SSW
12.11.2018 21:00:00 3,3 3,2 65 35 96 52 SSW
12.11.2018 20:00:00 3,3 3,2 68 37 94 51 SW
12.11.2018 19:00:00 3,6 3,5 70 38 89 48 SSW
12.11.2018 18:00:00 3,7 3,6 70 38 85 46 SW
12.11.2018 17:00:00 4,3 4,1 68 37 81 44 SSW
12.11.2018 16:00:00 3,9 3,8 65 35 80 43 SW
12.11.2018 15:00:00 - - 59 32 74 40 WSW
12.11.2018 14:00:00 4,4 4,3 67 36 89 48 SW
12.11.2018 13:00:00 4,5 4,3 70 38 87 47 SW
12.11.2018 12:00:00 4,4 4,3 68 37 85 46 SW
12.11.2018 11:00:00 4,1 3,9 63 34 78 42 SW
12.11.2018 10:00:00 3,9 3,7 67 36 80 43 SW
12.11.2018 09:00:00 3,7 3,6 68 37 81 44 SSW
12.11.2018 08:00:00 3,7 3,5 70 38 85 46 SW
12.11.2018 07:00:00 3,8 3,6 74 40 83 45 SW
12.11.2018 06:00:00 3,6 3,4 76 41 85 46 SW
12.11.2018 05:00:00 3,7 3,5 72 39 87 47 SW
12.11.2018 04:00:00 3,7 3,5 68 37 80 43 SW
12.11.2018 03:00:00 3,8 3,6 65 35 81 44 SW
12.11.2018 02:00:00 3,7 3,5 65 35 81 44 SW
12.11.2018 01:00:00 3,5 3,4 65 35 80 43 SW
12.11.2018 00:00:00 3,5 3,3 67 36 76 41 SW
11.11.2018 23:00:00 3,3 3,1 57 31 78 42 SW
11.11.2018 22:00:00 - - 65 35 80 43 SW
11.11.2018 21:00:00 2,9 2,7 67 36 78 42 SW
11.11.2018 20:00:00 3,1 2,9 67 36 80 43 SW
11.11.2018 19:00:00 3,4 3,2 72 39 83 45 SW
11.11.2018 18:00:00 3,1 2,9 59 32 76 41 SW
11.11.2018 17:00:00 2,7 2,5 65 35 72 39 SW
11.11.2018 16:00:00 2,8 2,6 57 31 74 40 SW
11.11.2018 15:00:00 3,0 2,9 63 34 76 41 SW
11.11.2018 14:00:00 3,4 3,4 63 34 74 40 SW
11.11.2018 13:00:00 3,2 3,2 50 27 61 33 SSW
11.11.2018 12:00:00 3,2 3,2 39 21 59 32 SSW
11.11.2018 11:00:00 3,4 3,4 37 20 48 26 S
11.11.2018 10:00:00 3,2 3,2 29 16 - - S
11.11.2018 09:00:00 3,3 3,2 39 21 48 26 S
11.11.2018 08:00:00 2,6 2,5 41 22 48 26 SSW
11.11.2018 07:00:00 3,0 2,8 41 22 54 29 SSW
11.11.2018 06:00:00 2,9 2,8 42 23 55 30 SSW
11.11.2018 05:00:00 3,0 2,8 42 23 54 29 SSW
11.11.2018 04:00:00 3,0 2,9 44 24 57 31 SSW
11.11.2018 03:00:00 3,3 3,1 42 23 50 27 SSW
11.11.2018 02:00:00 3,1 3,0 37 20 50 27 SSW
11.11.2018 01:00:00 3,3 3,1 41 22 52 28 SSW
11.11.2018 00:00:00 3,6 3,4 50 27 61 33 SW
10.11.2018 23:00:00 3,8 3,7 52 28 63 34 SSW
10.11.2018 22:00:00 4,0 3,8 52 28 63 34 SSW
10.11.2018 21:00:00 4,0 3,9 54 29 67 36 SSW
10.11.2018 20:00:00 4,2 4,2 55 30 74 40 SW
10.11.2018 19:00:00 4,3 4,3 54 29 68 37 SSW
10.11.2018 18:00:00 4,3 4,1 55 30 68 37 SSW
10.11.2018 17:00:00 4,3 4,1 52 28 68 37 S
10.11.2018 16:00:00 4,2 4,0 54 29 67 36 S
10.11.2018 15:00:00 4,2 4,0 48 26 59 32 S
10.11.2018 14:00:00 4,0 3,8 42 23 54 29 SSW
10.11.2018 13:00:00 4,0 3,9 42 23 65 35 SSW
10.11.2018 12:00:00 4,0 3,8 59 32 72 39 SSW
10.11.2018 11:00:00 3,5 3,4 50 27 63 34 SW
10.11.2018 10:00:00 3,5 3,3 44 24 61 33 SW
10.11.2018 09:00:00 2,8 2,6 48 26 68 37 SW
10.11.2018 08:00:00 2,9 2,8 57 31 87 47 SW
10.11.2018 07:00:00 2,9 2,7 63 34 76 41 SW
10.11.2018 06:00:00 3,2 3,0 63 34 80 43 SW
10.11.2018 05:00:00 4,4 4,2 59 32 80 43 SW
10.11.2018 04:00:00 4,8 4,7 59 32 78 42 SW
10.11.2018 03:00:00 4,9 4,8 63 34 81 44 SW
10.11.2018 02:00:00 4,5 4,5 59 32 80 43 SW
10.11.2018 01:00:00 5,1 5,1 63 34 80 43 SSW
10.11.2018 00:00:00 4,9 4,9 74 40 106 57 SSW
09.11.2018 23:00:00 4,7 4,7 80 43 107 58 S
09.11.2018 22:00:00 4,4 4,4 85 46 109 59 S
09.11.2018 21:00:00 4,1 4,1 89 48 119 64 S
09.11.2018 20:00:00 4,0 4,0 91 49 111 60 S
09.11.2018 19:00:00 4,1 4,1 78 42 102 55 S
09.11.2018 18:00:00 4,3 4,3 76 41 96 52 S
09.11.2018 17:00:00 5,0 5,0 61 33 85 46 SSE
09.11.2018 16:00:00 4,2 4,2 52 28 72 39 SSE
09.11.2018 15:00:00 4,1 4,1 54 29 81 44 SSE
09.11.2018 14:00:00 3,7 3,7 48 26 68 37 SE
09.11.2018 13:00:00 3,6 3,6 46 25 68 37 SSE
09.11.2018 12:00:00 3,4 3,4 55 30 74 40 SSE
09.11.2018 11:00:00 3,5 3,5 59 32 78 42 SSE
09.11.2018 10:00:00 3,5 3,5 65 35 81 44 S
09.11.2018 09:00:00 3,4 3,4 63 34 83 45 SSE
09.11.2018 08:00:00 3,3 3,3 54 29 72 39 SSE
09.11.2018 07:00:00 3,4 3,4 55 30 72 39 SSE
09.11.2018 06:00:00 3,3 3,2 59 32 76 41 S
09.11.2018 05:00:00 3,2 3,0 61 33 76 41 S

tt = temperature
td = dewpoint
ff = wind speed
fx = gusts
dd = wind direction

Next stations